Time;durP1;ratioP1;P1;durP2;ratioP2;P2;SDS_P1;SDS_P2;PMS_P1;PMS_P2;Temp;Humidity;BMP_temperature;BMP_pressure;BME280_temperature;BME280_humidity;BME280_pressure;Samples;Min_cycle;Max_cycle;Signal;HPM_P1;HPM_P2
2021/04/13 00:01:33;;;;;;;5.28;2.97;;;;;;;;;;5115205;28;20424;-57
2021/04/13 00:04:06;;;;;;;7.72;3.20;;;;;;;;;;5115234;28;20023;-57
2021/04/13 00:06:48;;;;;;;4.78;2.72;;;;;;;;;;5115270;28;20105;-57
2021/04/13 00:09:21;;;;;;;4.55;3.03;;;;;;;;;;5115067;28;20401;-56
2021/04/13 00:11:50;;;;;;;4.55;2.95;;;;;;;;;;5115170;28;20370;-57
2021/04/13 00:14:19;;;;;;;5.07;3.23;;;;;;;;;;5115389;28;20027;-57
2021/04/13 00:16:46;;;;;;;7.33;3.03;;;;;;;;;;5115115;28;20024;-57
2021/04/13 00:19:13;;;;;;;4.40;2.65;;;;;;;;;;5114873;28;20087;-57
2021/04/13 00:21:44;;;;;;;4.65;3.25;;;;;;;;;;5114892;28;20023;-57
2021/04/13 00:24:13;;;;;;;8.13;3.20;;;;;;;;;;5114934;28;20028;-56
2021/04/13 00:26:40;;;;;;;7.73;3.13;;;;;;;;;;5114763;28;20027;-56
2021/04/13 00:29:11;;;;;;;5.83;2.70;;;;;;;;;;5114649;28;20420;-57
2021/04/13 00:31:41;;;;;;;4.90;3.13;;;;;;;;;;5114675;28;20016;-56
2021/04/13 00:34:13;;;;;;;5.07;3.07;;;;;;;;;;5114695;28;20031;-56
2021/04/13 00:36:40;;;;;;;4.43;2.70;;;;;;;;;;5114711;28;20048;-57
2021/04/13 00:39:18;;;;;;;12.43;3.20;;;;;;;;;;5114543;28;20028;-56
2021/04/13 00:41:47;;;;;;;6.80;3.60;;;;;;;;;;5114399;28;20092;-57
2021/04/13 00:44:14;;;;;;;6.73;3.67;;;;;;;;;;5114052;28;20542;-56
2021/04/13 00:46:58;;;;;;;6.37;2.97;;;;;;;;;;5114712;28;20031;-56
2021/04/13 00:49:27;;;;;;;7.10;2.90;;;;;;;;;;5114278;28;20036;-56
2021/04/13 00:51:57;;;;;;;4.33;2.77;;;;;;;;;;5114238;28;20083;-57
2021/04/13 00:54:32;;;;;;;6.27;3.27;;;;;;;;;;5114322;28;20352;-57
2021/04/13 00:57:04;;;;;;;6.90;3.23;;;;;;;;;;5114199;28;20023;-57
2021/04/13 00:59:31;;;;;;;7.10;2.90;;;;;;;;;;5114079;28;20020;-56
2021/04/13 01:02:02;;;;;;;6.17;3.17;;;;;;;;;;5114027;28;20049;-56
2021/04/13 01:04:31;;;;;;;5.87;2.80;;;;;;;;;;5114153;28;20023;-56
2021/04/13 01:07:12;;;;;;;6.30;3.23;;;;;;;;;;5114026;28;20043;-57
2021/04/13 01:09:45;;;;;;;8.37;3.47;;;;;;;;;;5113434;28;20126;-57
2021/04/13 01:12:18;;;;;;;5.03;2.97;;;;;;;;;;5113916;28;20016;-57
2021/04/13 01:14:44;;;;;;;8.43;2.70;;;;;;;;;;5114030;28;20024;-57
2021/04/13 01:17:11;;;;;;;7.53;3.13;;;;;;;;;;5113801;28;20020;-57
2021/04/13 01:19:45;;;;;;;4.20;2.80;;;;;;;;;;5113813;28;20378;-57
2021/04/13 01:22:21;;;;;;;4.68;2.75;;;;;;;;;;5113687;28;20051;-57
2021/04/13 01:24:51;;;;;;;7.27;3.17;;;;;;;;;;5113757;28;20063;-57
2021/04/13 01:27:19;;;;;;;5.50;3.30;;;;;;;;;;5113644;28;20069;-58
2021/04/13 01:29:48;;;;;;;5.90;2.77;;;;;;;;;;5095453;28;20486;-57
2021/04/13 01:32:16;;;;;;;7.37;2.40;;;;;;;;;;5113564;28;20028;-57
2021/04/13 01:34:44;;;;;;;4.70;2.67;;;;;;;;;;5113501;28;20027;-58
2021/04/13 01:37:22;;;;;;;7.43;2.73;;;;;;;;;;5113871;28;20371;-57
2021/04/13 01:39:56;;;;;;;6.87;3.13;;;;;;;;;;5113551;28;20482;-57
2021/04/13 01:42:25;;;;;;;5.33;3.00;;;;;;;;;;5113807;28;20019;-57
2021/04/13 01:44:57;;;;;;;6.37;2.90;;;;;;;;;;5112978;28;20051;-58
2021/04/13 01:47:25;;;;;;;7.87;2.83;;;;;;;;;;5113444;28;20024;-57
2021/04/13 01:49:53;;;;;;;6.33;2.83;;;;;;;;;;5113361;28;20081;-56
2021/04/13 01:52:23;;;;;;;7.63;2.70;;;;;;;;;;5113286;28;20077;-56
2021/04/13 01:54:50;;;;;;;4.30;2.67;;;;;;;;;;5113268;28;20020;-57
2021/04/13 01:57:16;;;;;;;6.50;2.83;;;;;;;;;;5113396;28;20020;-57
2021/04/13 01:59:58;;;;;;;7.30;3.07;;;;;;;;;;5113183;28;20048;-57
2021/04/13 02:02:33;;;;;;;6.23;2.73;;;;;;;;;;5113219;28;20034;-57
2021/04/13 02:05:07;;;;;;;7.07;3.17;;;;;;;;;;5113308;28;20015;-57
2021/04/13 02:10:21;;;;;;;7.30;3.00;;;;;;;;;;5113290;28;20469;-57
2021/04/13 02:12:49;;;;;;;6.33;2.90;;;;;;;;;;5113352;28;20081;-57
2021/04/13 02:15:22;;;;;;;12.17;3.53;;;;;;;;;;5113082;28;20024;-56
2021/04/13 02:17:54;;;;;;;5.73;2.83;;;;;;;;;;5113197;28;20466;-56
2021/04/13 02:20:24;;;;;;;5.00;2.47;;;;;;;;;;5112992;28;20435;-56
2021/04/13 02:22:51;;;;;;;4.97;2.60;;;;;;;;;;5115018;28;20028;-56
2021/04/13 02:25:22;;;;;;;7.90;2.57;;;;;;;;;;5098952;28;20027;-57
2021/04/13 02:27:49;;;;;;;6.67;3.00;;;;;;;;;;5117072;28;20046;-56
2021/04/13 02:30:18;;;;;;;8.47;2.80;;;;;;;;;;5117049;28;20039;-57
2021/04/13 02:32:47;;;;;;;8.30;3.27;;;;;;;;;;5116895;28;20489;-56
2021/04/13 02:35:32;;;;;;;6.50;2.77;;;;;;;;;;5117265;28;20031;-57
2021/04/13 02:38:01;;;;;;;6.10;2.65;;;;;;;;;;5117047;28;20504;-56
2021/04/13 02:40:36;;;;;;;7.40;3.00;;;;;;;;;;5116797;28;20394;-56
2021/04/13 02:43:08;;;;;;;5.70;2.90;;;;;;;;;;5116730;28;20028;-55
2021/04/13 02:45:43;;;;;;;7.53;3.17;;;;;;;;;;5116549;27;20054;-56
2021/04/13 02:48:15;;;;;;;9.83;3.43;;;;;;;;;;5116735;28;20379;-56
2021/04/13 02:50:47;;;;;;;10.33;3.13;;;;;;;;;;5116662;28;20023;-56
2021/04/13 02:53:22;;;;;;;5.63;3.23;;;;;;;;;;5116642;28;20031;-56
2021/04/13 02:55:53;;;;;;;8.17;3.50;;;;;;;;;;5116592;28;20023;-57
2021/04/13 02:58:22;;;;;;;6.73;3.13;;;;;;;;;;5116462;28;20020;-56
2021/04/13 03:00:57;;;;;;;5.00;2.80;;;;;;;;;;5116454;28;20095;-56
2021/04/13 03:03:28;;;;;;;7.50;3.23;;;;;;;;;;5116524;28;20031;-57
2021/04/13 03:05:56;;;;;;;6.90;2.93;;;;;;;;;;5116437;28;20028;-57
2021/04/13 03:08:23;;;;;;;5.73;2.93;;;;;;;;;;5116351;28;20032;-57
2021/04/13 03:10:52;;;;;;;5.67;2.90;;;;;;;;;;5116317;28;20441;-55
2021/04/13 03:13:20;;;;;;;9.90;3.57;;;;;;;;;;5116156;28;20024;-55
2021/04/13 03:15:53;;;;;;;10.53;3.23;;;;;;;;;;5116373;28;20024;-55
2021/04/13 03:18:23;;;;;;;6.63;3.10;;;;;;;;;;5116134;28;20024;-54
2021/04/13 03:20:53;;;;;;;7.33;2.80;;;;;;;;;;5116116;28;20031;-55
2021/04/13 03:23:23;;;;;;;8.80;3.03;;;;;;;;;;5116076;28;20450;-55
2021/04/13 03:25:56;;;;;;;9.60;3.20;;;;;;;;;;5116049;28;20051;-55
2021/04/13 03:28:34;;;;;;;8.17;2.60;;;;;;;;;;5116292;28;20035;-55
2021/04/13 03:31:02;;;;;;;8.17;3.10;;;;;;;;;;5115883;28;20080;-55
2021/04/13 03:33:31;;;;;;;9.23;3.70;;;;;;;;;;5115364;28;20031;-55
2021/04/13 03:36:09;;;;;;;5.83;2.93;;;;;;;;;;5115946;28;20183;-55
2021/04/13 03:38:37;;;;;;;8.83;2.70;;;;;;;;;;5115735;28;20490;-55
2021/04/13 03:41:04;;;;;;;7.33;2.87;;;;;;;;;;5115756;28;20031;-55
2021/04/13 03:43:32;;;;;;;7.90;2.93;;;;;;;;;;5115603;28;20379;-55
2021/04/13 03:46:03;;;;;;;6.87;2.83;;;;;;;;;;5115335;27;20056;-56
2021/04/13 03:48:31;;;;;;;8.07;3.50;;;;;;;;;;5115579;28;20035;-55
2021/04/13 03:51:00;;;;;;;7.77;3.57;;;;;;;;;;5115517;28;20030;-56
2021/04/13 03:53:30;;;;;;;6.77;3.00;;;;;;;;;;5115851;28;20032;-56
2021/04/13 03:55:58;;;;;;;7.30;3.27;;;;;;;;;;5115446;28;20403;-56
2021/04/13 03:58:26;;;;;;;6.43;3.10;;;;;;;;;;5115461;28;20028;-55
2021/04/13 04:00:53;;;;;;;7.67;2.73;;;;;;;;;;5115333;28;20065;-56
2021/04/13 04:03:21;;;;;;;13.97;3.73;;;;;;;;;;5115290;28;20497;-56
2021/04/13 04:05:49;;;;;;;6.30;2.67;;;;;;;;;;5115370;28;20030;-56
2021/04/13 04:08:18;;;;;;;7.83;3.40;;;;;;;;;;5115216;28;20031;-56
2021/04/13 04:10:52;;;;;;;10.00;3.83;;;;;;;;;;5115310;28;20269;-55
2021/04/13 04:13:18;;;;;;;5.68;3.08;;;;;;;;;;5115213;28;20023;-55
2021/04/13 04:15:53;;;;;;;6.50;3.00;;;;;;;;;;5115210;28;20050;-56
2021/04/13 04:18:19;;;;;;;5.65;2.90;;;;;;;;;;5115326;28;20054;-56
2021/04/13 04:20:46;;;;;;;5.23;3.00;;;;;;;;;;5114984;28;20024;-56
2021/04/13 04:23:17;;;;;;;7.43;2.83;;;;;;;;;;5114824;28;20034;-55
2021/04/13 04:25:52;;;;;;;7.47;2.60;;;;;;;;;;5114922;28;20474;-55
2021/04/13 04:28:29;;;;;;;8.07;3.17;;;;;;;;;;5115048;28;20027;-55
2021/04/13 04:31:16;;;;;;;5.87;2.73;;;;;;;;;;5114729;28;20028;-55
2021/04/13 04:33:43;;;;;;;4.97;2.83;;;;;;;;;;5114720;28;20030;-56
2021/04/13 04:36:28;;;;;;;5.27;3.20;;;;;;;;;;5114824;28;20023;-55
2021/04/13 04:38:54;;;;;;;;;;;;;;;;;;5115137;28;20110;-55
2021/04/13 04:41:41;;;;;;;8.50;3.57;;;;;;;;;;5114493;28;19926;-56
2021/04/13 04:44:08;;;;;;;5.47;2.87;;;;;;;;;;5114246;28;20028;-55
2021/04/13 04:46:38;;;;;;;7.17;3.47;;;;;;;;;;5112647;28;20043;-56
2021/04/13 04:49:10;;;;;;;6.43;3.23;;;;;;;;;;5114369;28;20168;-55
2021/04/13 04:51:37;;;;;;;8.37;3.37;;;;;;;;;;5114251;28;20077;-55
2021/04/13 04:54:04;;;;;;;7.27;3.77;;;;;;;;;;5114301;28;20379;-55
2021/04/13 04:56:31;;;;;;;8.00;3.87;;;;;;;;;;5114264;28;20026;-55
2021/04/13 04:58:57;;;;;;;8.37;3.67;;;;;;;;;;5114089;28;20420;-55
2021/04/13 05:01:24;;;;;;;8.07;4.00;;;;;;;;;;5114164;28;20386;-56
2021/04/13 05:03:51;;;;;;;9.17;3.30;;;;;;;;;;5114296;28;20047;-55
2021/04/13 05:06:19;;;;;;;8.03;3.67;;;;;;;;;;5114106;28;20351;-55
2021/04/13 05:08:47;;;;;;;6.40;3.00;;;;;;;;;;5114258;28;20032;-55
2021/04/13 05:11:13;;;;;;;9.37;3.40;;;;;;;;;;5113932;28;20020;-55
2021/04/13 05:13:40;;;;;;;7.73;3.70;;;;;;;;;;5114050;28;20020;-55
2021/04/13 05:16:07;;;;;;;6.90;3.23;;;;;;;;;;5113867;28;20043;-55
2021/04/13 05:18:34;;;;;;;6.70;3.20;;;;;;;;;;5113872;28;20023;-55
2021/04/13 05:21:01;;;;;;;5.40;2.97;;;;;;;;;;5113730;28;20447;-55
2021/04/13 05:23:28;;;;;;;7.83;3.17;;;;;;;;;;5113839;28;20475;-55
2021/04/13 05:25:55;;;;;;;7.07;3.60;;;;;;;;;;5113840;28;20478;-55
2021/04/13 05:28:22;;;;;;;11.43;3.90;;;;;;;;;;5113696;28;20039;-55
2021/04/13 05:30:50;;;;;;;5.53;2.90;;;;;;;;;;5113642;28;20024;-55
2021/04/13 05:33:18;;;;;;;4.93;2.27;;;;;;;;;;5113680;28;20099;-56
2021/04/13 05:35:45;;;;;;;5.50;2.80;;;;;;;;;;5113666;28;20096;-55
2021/04/13 05:38:19;;;;;;;4.03;2.50;;;;;;;;;;5113528;28;20374;-56
2021/04/13 05:40:46;;;;;;;;;;;;;;;;;;5113912;28;20110;-56
2021/04/13 05:43:14;;;;;;;4.57;3.23;;;;;;;;;;5113566;28;19982;-55
2021/04/13 05:45:42;;;;;;;5.87;2.80;;;;;;;;;;5113173;28;20044;-55
2021/04/13 05:48:09;;;;;;;6.17;3.23;;;;;;;;;;5113395;28;20035;-56
2021/04/13 05:50:38;;;;;;;10.77;3.27;;;;;;;;;;5113395;28;20474;-55
2021/04/13 05:53:05;;;;;;;7.83;3.20;;;;;;;;;;5113413;28;20015;-55
2021/04/13 05:55:38;;;;;;;7.97;3.30;;;;;;;;;;5113321;28;20059;-55
2021/04/13 05:58:21;;;;;;;8.33;3.30;;;;;;;;;;5113256;28;20032;-55
2021/04/13 06:00:49;;;;;;;6.03;3.27;;;;;;;;;;5113200;28;20028;-56
2021/04/13 06:03:17;;;;;;;9.73;3.77;;;;;;;;;;5113291;28;20098;-55
2021/04/13 06:05:44;;;;;;;17.87;3.87;;;;;;;;;;5113314;28;20058;-55
2021/04/13 06:08:12;;;;;;;9.83;3.60;;;;;;;;;;5113237;28;20031;-55
2021/04/13 06:10:39;;;;;;;9.50;3.70;;;;;;;;;;5113619;28;20027;-55
2021/04/13 06:13:06;;;;;;;5.13;3.13;;;;;;;;;;5113247;28;20032;-55
2021/04/13 06:15:33;;;;;;;7.37;3.10;;;;;;;;;;5113170;28;20023;-55
2021/04/13 06:18:00;;;;;;;5.60;2.93;;;;;;;;;;5113148;28;20118;-55
2021/04/13 06:20:28;;;;;;;5.80;3.40;;;;;;;;;;5113068;28;20024;-56
2021/04/13 06:23:01;;;;;;;9.67;4.63;;;;;;;;;;5113132;28;20055;-55
2021/04/13 06:25:30;;;;;;;7.33;3.73;;;;;;;;;;5113326;28;20026;-55
2021/04/13 06:27:58;;;;;;;5.30;3.37;;;;;;;;;;5113235;28;20040;-55
2021/04/13 06:30:25;;;;;;;9.27;3.63;;;;;;;;;;5113142;28;20035;-55
2021/04/13 06:32:54;;;;;;;8.63;3.53;;;;;;;;;;5113006;28;20023;-56
2021/04/13 06:35:21;;;;;;;7.03;4.00;;;;;;;;;;5113306;28;20363;-55
2021/04/13 06:37:49;;;;;;;8.43;3.33;;;;;;;;;;5113052;28;20463;-56
2021/04/13 06:40:36;;;;;;;10.73;3.17;;;;;;;;;;5112922;28;20133;-56
2021/04/13 06:43:09;;;;;;;5.60;3.07;;;;;;;;;;5112918;28;20051;-56
2021/04/13 06:45:54;;;;;;;7.03;3.57;;;;;;;;;;5112337;28;20052;-56
2021/04/13 06:48:21;;;;;;;;;;;;;;;;;;5113330;28;20028;-56
2021/04/13 06:50:51;;;;;;;9.60;4.87;;;;;;;;;;5112718;28;20381;-56
2021/04/13 06:53:27;;;;;;;10.37;3.83;;;;;;;;;;5112938;28;20023;-56
2021/04/13 06:56:07;;;;;;;6.70;3.53;;;;;;;;;;5112796;28;20020;-56
2021/04/13 06:58:52;;;;;;;8.50;4.00;;;;;;;;;;5112777;28;20062;-55
2021/04/13 07:01:19;;;;;;;;;;;;;;;;;;5113154;28;20027;-56
2021/04/13 07:03:54;;;;;;;6.47;3.73;;;;;;;;;;5112843;28;19907;-56
2021/04/13 07:06:20;;;;;;;;;;;;;;;;;;5113380;28;20023;-56
2021/04/13 07:08:50;;;;;;;5.43;3.27;;;;;;;;;;5114229;28;19912;-56
2021/04/13 07:11:17;;;;;;;8.80;3.83;;;;;;;;;;5116154;28;20051;-56
2021/04/13 07:13:51;;;;;;;6.63;3.90;;;;;;;;;;5116325;28;20080;-56
2021/04/13 07:16:26;;;;;;;4.70;3.42;;;;;;;;;;5116323;28;20096;-56
2021/04/13 07:19:02;;;;;;;5.05;3.55;;;;;;;;;;5098161;28;20038;-56
2021/04/13 07:21:48;;;;;;;7.43;3.67;;;;;;;;;;5116108;28;20020;-56
2021/04/13 07:24:26;;;;;;;4.63;3.00;;;;;;;;;;5116137;28;20020;-56
2021/04/13 07:26:58;;;;;;;9.10;3.60;;;;;;;;;;5116135;28;20020;-55
2021/04/13 07:29:28;;;;;;;6.23;3.80;;;;;;;;;;5116255;28;20386;-56
2021/04/13 07:32:03;;;;;;;6.63;3.23;;;;;;;;;;5116026;28;20024;-55
2021/04/13 07:34:31;;;;;;;7.03;4.40;;;;;;;;;;5115929;28;20031;-56
2021/04/13 07:37:11;;;;;;;7.33;3.93;;;;;;;;;;5115936;28;20489;-56
2021/04/13 07:39:39;;;;;;;7.77;4.57;;;;;;;;;;5115830;28;20435;-56
2021/04/13 07:42:09;;;;;;;7.60;4.53;;;;;;;;;;5115728;28;20027;-56
2021/04/13 07:44:54;;;;;;;6.93;3.40;;;;;;;;;;5115329;28;20469;-56
2021/04/13 07:47:39;;;;;;;5.35;3.22;;;;;;;;;;5115843;28;20035;-55
2021/04/13 07:50:06;;;;;;;9.05;3.47;;;;;;;;;;5115672;28;20114;-56
2021/04/13 07:52:45;;;;;;;6.00;3.10;;;;;;;;;;5115501;28;20035;-56
2021/04/13 07:55:27;;;;;;;6.90;3.97;;;;;;;;;;5115525;28;20024;-56
2021/04/13 07:57:57;;;;;;;7.33;3.90;;;;;;;;;;5115415;28;20026;-56
2021/04/13 08:00:26;;;;;;;7.40;3.73;;;;;;;;;;5115467;28;20030;-55
2021/04/13 08:03:13;;;;;;;7.00;3.97;;;;;;;;;;5115347;28;20024;-56
2021/04/13 08:05:47;;;;;;;8.17;3.70;;;;;;;;;;5098292;28;20104;-56
2021/04/13 08:08:19;;;;;;;7.60;4.68;;;;;;;;;;5115211;28;20118;-55
2021/04/13 08:10:47;;;;;;;10.50;4.47;;;;;;;;;;5115308;28;20020;-55
2021/04/13 08:13:14;;;;;;;7.73;4.23;;;;;;;;;;5115188;28;20020;-55
2021/04/13 08:15:42;;;;;;;6.30;4.50;;;;;;;;;;5115137;28;20478;-56
2021/04/13 08:18:21;;;;;;;12.27;4.70;;;;;;;;;;5115117;28;20498;-55
2021/04/13 08:20:48;;;;;;;9.67;4.37;;;;;;;;;;5114898;28;20031;-55
2021/04/13 08:23:27;;;;;;;9.53;4.30;;;;;;;;;;5114991;28;20027;-55
2021/04/13 08:25:59;;;;;;;6.37;3.60;;;;;;;;;;5114916;28;20094;-56
2021/04/13 08:28:37;;;;;;;8.63;3.83;;;;;;;;;;5114841;28;20058;-55
2021/04/13 08:33:59;;;;;;;7.22;4.38;;;;;;;;;;5115188;28;20043;-55
2021/04/13 08:36:46;;;;;;;9.27;3.83;;;;;;;;;;5114792;28;20020;-55
2021/04/13 08:39:33;;;;;;;8.47;4.03;;;;;;;;;;5114789;28;20027;-55
2021/04/13 08:42:06;;;;;;;7.50;4.13;;;;;;;;;;5114520;28;20058;-55
2021/04/13 08:45:03;;;;;;;8.27;4.10;;;;;;;;;;5114008;27;20131;-56
2021/04/13 08:47:42;;;;;;;7.20;3.50;;;;;;;;;;5114458;28;20446;-56
2021/04/13 08:50:21;;;;;;;8.10;3.30;;;;;;;;;;5114452;28;20245;-55
2021/04/13 08:52:58;;;;;;;7.33;4.07;;;;;;;;;;5114418;28;20027;-55
2021/04/13 08:55:36;;;;;;;8.53;3.63;;;;;;;;;;5114348;28;20079;-55
2021/04/13 08:58:33;;;;;;;7.17;3.43;;;;;;;;;;5114146;28;20023;-55
2021/04/13 09:01:00;;;;;;;5.60;3.50;;;;;;;;;;5114140;28;20028;-55
2021/04/13 09:03:29;;;;;;;6.83;3.93;;;;;;;;;;5114210;28;20019;-55
2021/04/13 09:06:14;;;;;;;9.00;4.43;;;;;;;;;;5114142;28;20446;-55
2021/04/13 09:08:41;;;;;;;5.77;4.00;;;;;;;;;;5114073;28;20031;-55
2021/04/13 09:11:26;;;;;;;8.70;4.00;;;;;;;;;;5113942;28;20034;-55
2021/04/13 09:13:53;;;;;;;;;;;;;;;;;;5114493;28;20385;-56
2021/04/13 09:16:22;;;;;;;8.13;3.90;;;;;;;;;;5114007;28;19910;-55
2021/04/13 09:18:51;;;;;;;6.23;3.97;;;;;;;;;;5113885;28;20054;-55
2021/04/13 09:21:33;;;;;;;8.90;4.00;;;;;;;;;;5113876;28;20023;-55
2021/04/13 09:24:12;;;;;;;5.80;3.47;;;;;;;;;;5113791;28;20027;-55
2021/04/13 09:26:57;;;;;;;4.93;3.47;;;;;;;;;;5113685;28;20031;-55
2021/04/13 09:29:42;;;;;;;12.63;3.45;;;;;;;;;;5113694;28;20036;-55
2021/04/13 09:32:30;;;;;;;8.07;3.97;;;;;;;;;;5113255;28;20015;-55
2021/04/13 09:34:57;;;;;;;5.40;3.60;;;;;;;;;;5113693;28;20080;-55
2021/04/13 09:37:42;;;;;;;7.10;3.80;;;;;;;;;;5113999;28;20145;-55
2021/04/13 09:40:28;;;;;;;7.13;3.80;;;;;;;;;;5113587;28;20035;-55
2021/04/13 09:43:01;;;;;;;7.13;4.43;;;;;;;;;;5113687;28;20111;-55
2021/04/13 09:45:31;;;;;;;7.17;4.00;;;;;;;;;;5113312;28;20120;-55
2021/04/13 09:48:09;;;;;;;7.53;3.90;;;;;;;;;;5113449;28;20059;-55
2021/04/13 09:50:36;;;;;;;8.10;4.40;;;;;;;;;;5113443;28;20394;-55
2021/04/13 09:53:21;;;;;;;6.67;3.60;;;;;;;;;;5113548;28;20050;-55
2021/04/13 09:56:02;;;;;;;9.02;3.85;;;;;;;;;;5113375;28;20024;-55
2021/04/13 09:58:31;;;;;;;9.30;3.67;;;;;;;;;;5113294;28;20059;-55
2021/04/13 10:01:06;;;;;;;7.20;3.60;;;;;;;;;;5113512;28;20412;-55
2021/04/13 10:03:51;;;;;;;8.00;3.55;;;;;;;;;;5113289;28;20032;-55
2021/04/13 10:06:20;;;;;;;7.07;3.90;;;;;;;;;;5113300;28;20433;-55
2021/04/13 10:08:48;;;;;;;7.67;3.20;;;;;;;;;;5113269;28;20039;-55
2021/04/13 10:11:29;;;;;;;5.43;3.20;;;;;;;;;;5113234;28;20019;-55
2021/04/13 10:13:56;;;;;;;6.13;4.13;;;;;;;;;;5113336;28;20088;-55
2021/04/13 10:16:34;;;;;;;7.27;3.67;;;;;;;;;;5113172;28;20024;-55
2021/04/13 10:19:19;;;;;;;7.33;4.03;;;;;;;;;;5113194;28;20390;-55
2021/04/13 10:22:05;;;;;;;6.18;4.03;;;;;;;;;;5113213;28;20031;-55
2021/04/13 10:24:49;;;;;;;8.30;3.97;;;;;;;;;;5113095;28;20024;-55
2021/04/13 10:27:33;;;;;;;5.47;3.85;;;;;;;;;;5113028;28;20027;-55
2021/04/13 10:30:18;;;;;;;7.23;4.40;;;;;;;;;;5113027;28;20036;-55
2021/04/13 10:33:05;;;;;;;7.43;4.47;;;;;;;;;;5113038;28;20031;-55
2021/04/13 10:35:31;;;;;;;8.77;4.30;;;;;;;;;;5113273;28;20480;-55
2021/04/13 10:38:07;;;;;;;6.87;3.80;;;;;;;;;;5112976;28;20066;-55
2021/04/13 10:40:34;;;;;;;5.27;3.50;;;;;;;;;;5112892;28;20053;-55
2021/04/13 10:43:19;;;;;;;6.67;3.67;;;;;;;;;;5113492;28;20121;-55
2021/04/13 10:46:05;;;;;;;5.47;3.63;;;;;;;;;;5116490;27;20102;-55
2021/04/13 10:48:55;;;;;;;9.27;3.70;;;;;;;;;;5116789;28;20428;-55
2021/04/13 10:51:39;;;;;;;8.13;4.13;;;;;;;;;;5116826;28;20026;-55
2021/04/13 10:54:09;;;;;;;5.57;3.63;;;;;;;;;;5116793;28;20043;-55
2021/04/13 10:56:36;;;;;;;6.63;3.77;;;;;;;;;;5116712;28;20032;-55
2021/04/13 10:59:21;;;;;;;5.97;3.67;;;;;;;;;;5116654;28;20048;-55
2021/04/13 11:02:00;;;;;;;7.13;3.85;;;;;;;;;;5116521;28;20681;-55
2021/04/13 11:04:26;;;;;;;6.17;3.47;;;;;;;;;;5116522;28;20027;-55
2021/04/13 11:07:11;;;;;;;6.47;3.50;;;;;;;;;;5116449;28;20039;-55
2021/04/13 11:09:41;;;;;;;5.72;3.75;;;;;;;;;;5116438;28;20035;-55
2021/04/13 11:12:20;;;;;;;7.10;3.60;;;;;;;;;;5116181;28;20095;-55
2021/04/13 11:14:55;;;;;;;5.73;3.87;;;;;;;;;;5116276;28;20252;-55
2021/04/13 11:17:37;;;;;;;6.27;3.83;;;;;;;;;;5116212;28;20375;-55
2021/04/13 11:20:04;;;;;;;7.90;4.20;;;;;;;;;;5116238;28;20288;-55
2021/04/13 11:22:34;;;;;;;6.87;4.07;;;;;;;;;;5116129;28;20644;-55
2021/04/13 11:25:19;;;;;;;6.47;3.97;;;;;;;;;;5116406;28;20020;-55
2021/04/13 11:27:58;;;;;;;6.35;3.63;;;;;;;;;;5116070;28;20279;-55
2021/04/13 11:30:43;;;;;;;5.30;3.23;;;;;;;;;;5116014;28;20045;-55
2021/04/13 11:33:28;;;;;;;8.70;4.38;;;;;;;;;;5115966;28;20240;-55
2021/04/13 11:36:18;;;;;;;7.93;4.72;;;;;;;;;;5115920;28;20484;-55
2021/04/13 11:39:01;;;;;;;8.10;4.50;;;;;;;;;;5102998;28;20120;-55
2021/04/13 11:41:31;;;;;;;6.60;3.73;;;;;;;;;;5115611;28;20325;-55
2021/04/13 11:44:01;;;;;;;6.50;4.33;;;;;;;;;;5115712;28;20240;-55
2021/04/13 11:46:31;;;;;;;8.67;4.47;;;;;;;;;;5115360;27;20280;-55
2021/04/13 11:49:03;;;;;;;5.87;3.67;;;;;;;;;;5115586;28;20281;-55
2021/04/13 11:52:08;;;;;;;10.10;4.27;;;;;;;;;;5115539;28;20345;-55
2021/04/13 11:54:38;;;;;;;6.70;4.40;;;;;;;;;;5012608;28;20259;-55
2021/04/13 11:57:11;;;;;;;8.23;4.37;;;;;;;;;;5012793;28;20256;-55
2021/04/13 11:59:38;;;;;;;9.17;4.43;;;;;;;;;;5069084;28;20653;-55
2021/04/13 12:02:17;;;;;;;7.47;4.37;;;;;;;;;;5115368;28;20266;-55
2021/04/13 12:04:45;;;;;;;9.20;4.27;;;;;;;;;;5115476;28;20249;-55
2021/04/13 12:07:12;;;;;;;6.50;4.00;;;;;;;;;;5115251;28;20259;-55
2021/04/13 12:09:42;;;;;;;6.23;4.10;;;;;;;;;;5115184;28;20292;-55
2021/04/13 12:12:29;;;;;;;13.27;4.40;;;;;;;;;;5115195;28;20277;-55
2021/04/13 12:14:55;;;;;;;7.93;3.50;;;;;;;;;;5098032;28;20350;-55
2021/04/13 12:17:34;;;;;;;7.47;4.57;;;;;;;;;;5115042;28;20248;-55
2021/04/13 12:20:20;;;;;;;5.60;3.43;;;;;;;;;;5115040;28;20256;-55
2021/04/13 12:22:48;;;;;;;6.78;3.88;;;;;;;;;;5115132;28;20248;-55
2021/04/13 12:25:38;;;;;;;6.90;4.33;;;;;;;;;;5114982;28;20027;-55
2021/04/13 12:28:09;;;;;;;5.43;3.60;;;;;;;;;;5114880;28;20248;-55
2021/04/13 12:30:56;;;;;;;5.93;3.57;;;;;;;;;;5114842;28;20355;-55
2021/04/13 12:33:26;;;;;;;7.50;4.60;;;;;;;;;;5114738;28;20732;-56
2021/04/13 12:36:05;;;;;;;6.70;4.50;;;;;;;;;;5114698;28;20255;-55
2021/04/13 12:38:49;;;;;;;6.47;3.97;;;;;;;;;;5114635;28;20301;-56
2021/04/13 12:41:16;;;;;;;8.23;3.87;;;;;;;;;;5114626;28;20293;-55
2021/04/13 12:43:44;;;;;;;7.13;3.40;;;;;;;;;;5114638;28;20250;-55
2021/04/13 12:46:27;;;;;;;6.40;3.90;;;;;;;;;;5114192;27;20766;-55
2021/04/13 12:48:56;;;;;;;6.07;4.17;;;;;;;;;;5114535;28;20357;-55
2021/04/13 12:51:31;;;;;;;8.13;4.83;;;;;;;;;;5114397;28;20256;-55
2021/04/13 12:54:27;;;;;;;7.07;4.73;;;;;;;;;;5114430;28;20251;-55
2021/04/13 12:57:02;;;;;;;7.60;4.05;;;;;;;;;;5093202;28;20675;-55
2021/04/13 12:59:29;;;;;;;11.70;4.20;;;;;;;;;;5114331;28;20028;-55
2021/04/13 13:01:56;;;;;;;16.17;5.40;;;;;;;;;;5114228;28;20030;-55
2021/04/13 13:04:24;;;;;;;11.27;4.90;;;;;;;;;;5114258;28;20329;-55
2021/04/13 13:06:54;;;;;;;13.63;5.00;;;;;;;;;;5113383;28;20668;-55
2021/04/13 13:09:26;;;;;;;12.73;5.00;;;;;;;;;;5114331;28;20303;-56
2021/04/13 13:12:02;;;;;;;11.47;6.53;;;;;;;;;;5114073;28;20252;-56
2021/04/13 13:14:30;;;;;;;11.23;5.33;;;;;;;;;;5114119;28;20638;-55
2021/04/13 13:16:58;;;;;;;13.97;5.37;;;;;;;;;;5113937;28;20236;-56
2021/04/13 13:19:36;;;;;;;13.83;5.27;;;;;;;;;;5114023;28;20261;-56
2021/04/13 13:22:05;;;;;;;11.43;5.13;;;;;;;;;;5113805;28;20247;-56
2021/04/13 13:24:33;;;;;;;14.77;5.27;;;;;;;;;;5113958;28;20027;-56
2021/04/13 13:27:20;;;;;;;9.57;5.70;;;;;;;;;;5113820;28;20378;-56
2021/04/13 13:29:48;;;;;;;12.17;5.87;;;;;;;;;;5113616;28;20039;-56
2021/04/13 13:32:15;;;;;;;10.23;6.63;;;;;;;;;;5113726;28;20030;-56
2021/04/13 13:34:43;;;;;;;9.97;6.30;;;;;;;;;;5113793;28;20022;-56
2021/04/13 13:37:12;;;;;;;13.00;7.03;;;;;;;;;;5113683;28;20020;-56
2021/04/13 13:39:39;;;;;;;21.87;7.73;;;;;;;;;;5113598;28;20020;-56
2021/04/13 13:42:08;;;;;;;13.87;5.83;;;;;;;;;;5113843;28;20489;-56
2021/04/13 13:44:42;;;;;;;10.67;6.10;;;;;;;;;;5113437;28;20027;-56
2021/04/13 13:47:28;;;;;;;14.23;6.47;;;;;;;;;;5113107;28;20044;-57
2021/04/13 13:49:56;;;;;;;12.35;6.47;;;;;;;;;;5113270;28;20084;-56
2021/04/13 13:52:39;;;;;;;11.30;7.63;;;;;;;;;;5113389;28;20015;-56
2021/04/13 13:55:11;;;;;;;12.13;6.77;;;;;;;;;;5113434;28;20031;-57
2021/04/13 13:57:39;;;;;;;18.53;7.80;;;;;;;;;;5113358;28;20034;-56
2021/04/13 14:00:08;;;;;;;13.37;7.60;;;;;;;;;;5113379;28;20031;-56
2021/04/13 14:02:36;;;;;;;12.73;7.60;;;;;;;;;;5113287;28;20031;-57
2021/04/13 14:05:15;;;;;;;19.60;7.33;;;;;;;;;;5113345;28;20027;-57
2021/04/13 14:07:43;;;;;;;18.70;7.53;;;;;;;;;;5113340;28;20402;-56
2021/04/13 14:10:09;;;;;;;11.47;6.53;;;;;;;;;;5113112;28;20074;-57
2021/04/13 14:12:40;;;;;;;8.03;5.23;;;;;;;;;;5113211;28;20378;-57
2021/04/13 14:15:25;;;;;;;11.37;5.73;;;;;;;;;;5113245;28;20489;-57
2021/04/13 14:17:51;;;;;;;;;;;;;;;;;;5115525;28;20390;-57
2021/04/13 14:20:18;;;;;;;13.67;6.23;;;;;;;;;;5117673;28;19907;-57
2021/04/13 14:22:47;;;;;;;17.13;6.93;;;;;;;;;;5117341;28;20035;-57
2021/04/13 14:25:25;;;;;;;12.43;6.80;;;;;;;;;;5117211;28;20024;-57
2021/04/13 14:28:18;;;;;;;15.07;7.13;;;;;;;;;;5117188;28;20027;-57
2021/04/13 14:30:45;;;;;;;16.17;6.73;;;;;;;;;;5117180;28;20032;-57
2021/04/13 14:33:12;;;;;;;15.80;7.03;;;;;;;;;;5117310;28;20102;-57
2021/04/13 14:35:39;;;;;;;14.23;7.43;;;;;;;;;;5117212;28;20039;-57
2021/04/13 14:38:10;;;;;;;18.40;7.87;;;;;;;;;;5117145;28;20042;-57
2021/04/13 14:40:37;;;;;;;14.23;7.57;;;;;;;;;;5117034;28;20028;-57
2021/04/13 14:43:04;;;;;;;11.13;7.00;;;;;;;;;;5116890;28;20176;-57
2021/04/13 14:45:34;;;;;;;9.97;6.33;;;;;;;;;;5116420;27;20035;-58
2021/04/13 14:48:05;;;;;;;14.57;7.87;;;;;;;;;;5116806;28;20031;-57
2021/04/13 14:50:36;;;;;;;14.80;7.53;;;;;;;;;;5116876;28;20085;-57
2021/04/13 14:53:03;;;;;;;14.13;7.90;;;;;;;;;;5116792;28;20103;-57
2021/04/13 14:55:30;;;;;;;11.53;6.90;;;;;;;;;;5116703;28;20470;-57
2021/04/13 14:58:00;;;;;;;11.00;7.33;;;;;;;;;;5116682;28;20039;-57
2021/04/13 15:00:27;;;;;;;11.50;6.80;;;;;;;;;;5116620;28;20028;-57
2021/04/13 15:02:54;;;;;;;16.57;8.27;;;;;;;;;;5116552;28;20023;-57
2021/04/13 15:05:21;;;;;;;18.47;8.10;;;;;;;;;;5116586;28;20034;-57
2021/04/13 15:07:51;;;;;;;19.33;7.77;;;;;;;;;;5116583;28;20106;-57
2021/04/13 15:10:19;;;;;;;12.33;7.77;;;;;;;;;;5116433;28;20051;-57
2021/04/13 15:12:45;;;;;;;15.43;7.40;;;;;;;;;;5116430;28;20028;-57
2021/04/13 15:15:12;;;;;;;12.63;6.77;;;;;;;;;;5116473;28;20034;-57
2021/04/13 15:17:41;;;;;;;14.37;7.13;;;;;;;;;;5116338;28;20080;-57
2021/04/13 15:20:11;;;;;;;12.83;7.23;;;;;;;;;;5116253;28;20390;-57
2021/04/13 15:22:39;;;;;;;10.13;5.20;;;;;;;;;;5116141;28;20482;-57